createdAt,value
2018-12-16T00:00:51.155Z,101850.70
2018-12-16T00:03:55.489Z,101837.75
2018-12-16T00:06:59.748Z,101831.55
2018-12-16T00:10:04.448Z,101833.61
2018-12-16T00:13:08.757Z,101829.73
2018-12-16T00:16:13.096Z,101829.13
2018-12-16T00:19:17.338Z,101818.45
2018-12-16T00:22:22.036Z,101819.41
2018-12-16T00:25:26.416Z,101828.41
2018-12-16T00:28:30.643Z,101818.68
2018-12-16T00:31:34.887Z,101824.66
2018-12-16T00:34:39.202Z,101827.67
2018-12-16T00:37:43.500Z,101824.15
2018-12-16T00:40:47.727Z,101819.58
2018-12-16T00:43:52.038Z,101818.37
2018-12-16T00:46:56.397Z,101817.98
2018-12-16T00:50:00.606Z,101819.95
2018-12-16T00:53:04.967Z,101816.08
2018-12-16T00:56:09.310Z,101820.34
2018-12-16T00:59:13.679Z,101819.00
2018-12-16T01:02:23.369Z,101820.56
2018-12-16T01:05:28.184Z,101815.73
2018-12-16T01:08:32.594Z,101819.73
2018-12-16T01:11:36.853Z,101821.42
2018-12-16T01:14:41.216Z,101825.77
2018-12-16T01:17:45.547Z,101821.67
2018-12-16T01:20:49.794Z,101812.11
2018-12-16T01:27:40.284Z,101819.48
2018-12-16T01:30:44.513Z,101815.12
2018-12-16T01:33:48.831Z,101822.78
2018-12-16T01:36:53.127Z,101810.39
2018-12-16T01:39:57.391Z,101812.23
2018-12-16T01:43:01.727Z,101814.78
2018-12-16T01:46:06.113Z,101803.73
2018-12-16T01:49:10.371Z,101802.78
2018-12-16T01:52:14.654Z,101794.05
2018-12-16T01:55:18.914Z,101786.30
2018-12-16T01:58:23.285Z,101785.19
2018-12-16T02:01:27.523Z,101760.61
2018-12-16T02:04:31.946Z,101758.16
2018-12-16T02:07:36.324Z,101748.73
2018-12-16T02:10:40.804Z,101740.60
2018-12-16T02:13:45.175Z,101743.02
2018-12-16T02:16:49.430Z,101736.00
2018-12-16T02:19:53.829Z,101734.16
2018-12-16T02:22:58.127Z,101724.00
2018-12-16T02:26:02.394Z,101716.34
2018-12-16T02:29:06.765Z,101720.34
2018-12-16T02:32:10.988Z,101710.16
2018-12-16T02:35:15.403Z,101707.01
2018-12-16T02:38:19.733Z,101708.94
2018-12-16T02:41:24.123Z,101706.27
2018-12-16T02:44:28.456Z,101699.13
2018-12-16T02:47:32.732Z,101703.61
2018-12-16T02:50:36.953Z,101687.48
2018-12-16T02:53:41.354Z,101697.80
2018-12-16T02:56:45.829Z,101690.66
2018-12-16T02:59:50.093Z,101684.81
2018-12-16T03:02:54.400Z,101690.53
2018-12-16T03:05:58.741Z,101684.59
2018-12-16T03:09:03.115Z,101671.98
2018-12-16T03:12:07.511Z,101668.33
2018-12-16T03:15:12.008Z,101661.92
2018-12-16T03:18:16.388Z,101654.91
2018-12-16T03:21:20.757Z,101650.66
2018-12-16T03:24:24.976Z,101643.52
2018-12-16T03:27:29.295Z,101646.41
2018-12-16T03:30:33.560Z,101642.87
2018-12-16T03:33:37.907Z,101633.65
2018-12-16T03:36:42.217Z,101626.72
2018-12-16T03:39:46.570Z,101616.73
2018-12-16T03:42:50.886Z,101608.94
2018-12-16T03:45:55.236Z,101602.24
2018-12-16T03:48:59.460Z,101596.05
2018-12-16T03:52:05.756Z,101587.05
2018-12-16T03:55:10.061Z,101576.77
2018-12-16T03:58:14.317Z,101576.52
2018-12-16T04:01:18.529Z,101573.72
2018-12-16T04:04:23.007Z,101568.89
2018-12-16T04:07:27.366Z,101557.70
2018-12-16T04:10:31.623Z,101557.50
2018-12-16T04:13:35.851Z,101551.89
2018-12-16T04:16:40.214Z,101542.90
2018-12-16T04:19:44.468Z,101539.62
2018-12-16T04:22:48.836Z,101528.59
2018-12-16T04:25:53.118Z,101523.61
2018-12-16T04:28:57.366Z,101514.85
2018-12-16T04:32:01.661Z,101511.33
2018-12-16T04:35:06.735Z,101497.64
2018-12-16T04:38:11.078Z,101491.93
2018-12-16T04:41:15.427Z,101484.44
2018-12-16T04:44:19.704Z,101484.51
2018-12-16T04:47:23.921Z,101477.94
2018-12-16T04:50:28.183Z,101484.95
2018-12-16T04:53:36.950Z,101482.28
2018-12-16T04:56:38.755Z,101485.44
2018-12-16T04:59:43.047Z,101481.43
2018-12-16T05:02:47.376Z,101484.61
2018-12-16T05:05:51.620Z,101480.95
2018-12-16T05:08:56.132Z,101478.63
2018-12-16T05:12:00.409Z,101480.47
2018-12-16T05:15:04.880Z,101487.83
2018-12-16T05:18:09.168Z,101483.14
2018-12-16T05:21:13.419Z,101480.95
2018-12-16T05:24:17.665Z,101479.75
2018-12-16T05:27:21.892Z,101487.63
2018-12-16T05:30:26.282Z,101484.23
2018-12-16T05:33:30.612Z,101478.55
2018-12-16T05:36:34.857Z,101477.08
2018-12-16T05:39:39.086Z,101472.33
2018-12-16T05:42:43.542Z,101476.88
2018-12-16T05:45:48.155Z,101465.59
2018-12-16T05:48:52.572Z,101457.44
2018-12-16T05:51:56.896Z,101450.63
2018-12-16T05:55:01.165Z,101448.20
2018-12-16T05:58:05.542Z,101445.25
2018-12-16T06:01:09.780Z,101437.45
2018-12-16T06:04:14.072Z,101437.17
2018-12-16T06:07:18.517Z,101432.82
2018-12-16T06:10:22.852Z,101432.69
2018-12-16T06:13:27.116Z,101415.95
2018-12-16T06:16:31.491Z,101411.33
2018-12-16T06:19:35.750Z,101425.16
2018-12-16T06:22:39.984Z,101422.97
2018-12-16T06:25:44.228Z,101408.28
2018-12-16T06:28:48.464Z,101404.99
2018-12-16T06:31:52.728Z,101401.12
2018-12-16T06:34:57.045Z,101389.69
2018-12-16T06:38:01.283Z,101396.22
2018-12-16T06:41:05.524Z,101398.41
2018-12-16T06:44:09.783Z,101393.41
2018-12-16T06:47:14.132Z,101384.69
2018-12-16T06:50:18.419Z,101382.59
2018-12-16T06:53:22.707Z,101386.12
2018-12-16T06:56:26.959Z,101385.60
2018-12-16T06:59:31.209Z,101388.64
2018-12-16T07:02:35.450Z,101383.84
2018-12-16T07:05:39.856Z,101391.09
2018-12-16T07:08:44.152Z,101386.45
2018-12-16T07:11:48.415Z,101381.46
2018-12-16T07:14:52.654Z,101379.16
2018-12-16T07:17:56.910Z,101381.69
2018-12-16T07:21:01.149Z,101383.02
2018-12-16T07:24:09.246Z,101383.36
2018-12-16T07:27:11.770Z,101383.08
2018-12-16T07:30:16.264Z,101388.37
2018-12-16T07:33:20.519Z,101391.72
2018-12-16T07:36:24.819Z,101393.42
2018-12-16T07:39:29.086Z,101379.50
2018-12-16T07:42:33.610Z,101375.06
2018-12-16T07:45:38.084Z,101378.21
2018-12-16T07:48:42.796Z,101378.21
2018-12-16T07:51:47.187Z,101381.59
2018-12-16T07:54:51.462Z,101385.31
2018-12-16T07:57:55.727Z,101384.40
2018-12-16T08:00:59.975Z,101385.16
2018-12-16T08:04:04.329Z,101391.22
2018-12-16T08:07:08.624Z,101393.94
2018-12-16T08:10:12.975Z,101385.29
2018-12-16T08:13:17.235Z,101379.80
2018-12-16T08:16:21.598Z,101378.99
2018-12-16T08:19:25.943Z,101371.34
2018-12-16T08:22:30.191Z,101373.50
2018-12-16T08:25:34.504Z,101373.73
2018-12-16T08:28:38.751Z,101367.75
2018-12-16T08:31:43.071Z,101372.09
2018-12-16T08:34:47.303Z,101361.70
2018-12-16T08:37:51.732Z,101358.55
2018-12-16T08:40:56.052Z,101350.16
2018-12-16T08:44:00.287Z,101349.72
2018-12-16T08:47:04.730Z,101339.54
2018-12-16T08:50:09.101Z,101337.20
2018-12-16T08:53:13.358Z,101331.56
2018-12-16T08:56:17.614Z,101327.73
2018-12-16T08:59:21.939Z,101326.96
2018-12-16T09:02:26.261Z,101327.45
2018-12-16T09:05:30.591Z,101330.27
2018-12-16T09:08:34.826Z,101319.94
2018-12-16T09:11:39.195Z,101312.81
2018-12-16T09:14:43.515Z,101319.16
2018-12-16T09:17:48.067Z,101316.67
2018-12-16T09:20:52.304Z,101312.03
2018-12-16T09:23:56.526Z,101322.43
2018-12-16T09:27:00.815Z,101313.22
2018-12-16T09:30:07.196Z,101307.06
2018-12-16T09:33:11.389Z,101311.44
2018-12-16T09:36:15.671Z,101303.27
2018-12-16T09:39:20.081Z,101309.98
2018-12-16T09:42:24.308Z,101317.34
2018-12-16T09:45:28.609Z,101309.36
2018-12-16T09:48:32.852Z,101310.73
2018-12-16T09:51:37.092Z,101311.92
2018-12-16T09:54:44.409Z,101303.89
2018-12-16T09:57:47.603Z,101301.37
2018-12-16T10:00:51.815Z,101306.08
2018-12-16T10:03:56.885Z,101304.93
2018-12-16T10:07:01.092Z,101309.80
2018-12-16T10:10:10.680Z,101302.47
2018-12-16T10:13:14.991Z,101290.84
2018-12-16T10:16:19.202Z,101282.81
2018-12-16T10:19:23.444Z,101284.45
2018-12-16T10:22:27.623Z,101277.21
2018-12-16T10:25:31.871Z,101270.70
2018-12-16T10:28:36.079Z,101279.03
2018-12-16T10:31:40.320Z,101279.52
2018-12-16T10:34:44.611Z,101271.31
2018-12-16T10:37:48.912Z,101275.17
2018-12-16T10:40:53.120Z,101275.02
2018-12-16T10:43:57.310Z,101274.84
2018-12-16T10:47:01.540Z,101267.15
2018-12-16T10:50:07.463Z,101257.30
2018-12-16T10:53:11.809Z,101254.63
2018-12-16T10:56:15.991Z,101248.61
2018-12-16T10:59:20.182Z,101247.64
2018-12-16T11:02:24.552Z,101241.13
2018-12-16T11:05:28.939Z,101241.83
2018-12-16T11:08:33.460Z,101230.28
2018-12-16T11:11:37.647Z,101229.46
2018-12-16T11:14:42.042Z,101229.16
2018-12-16T11:17:46.239Z,101221.13
2018-12-16T11:20:50.544Z,101220.13
2018-12-16T11:23:54.879Z,101228.64
2018-12-16T11:26:59.099Z,101224.77
2018-12-16T11:30:03.589Z,101224.45
2018-12-16T11:33:07.861Z,101227.61
2018-12-16T11:36:12.232Z,101226.42
2018-12-16T11:39:16.632Z,101228.45
2018-12-16T11:42:20.924Z,101226.11
2018-12-16T11:45:25.151Z,101225.30
2018-12-16T11:48:29.774Z,101222.25
2018-12-16T11:51:34.145Z,101223.95
2018-12-16T11:54:38.359Z,101216.42
2018-12-16T11:57:42.584Z,101216.09
2018-12-16T12:00:46.881Z,101223.74
2018-12-16T12:03:51.152Z,101221.73
2018-12-16T12:06:55.374Z,101222.08
2018-12-16T12:09:59.697Z,101218.23
2018-12-16T12:13:03.972Z,101209.40
2018-12-16T12:16:08.260Z,101206.72
2018-12-16T12:19:12.502Z,101204.20
2018-12-16T12:22:16.767Z,101194.98
2018-12-16T12:25:21.051Z,101200.46
2018-12-16T12:28:25.838Z,101196.11
2018-12-16T12:31:30.044Z,101192.44
2018-12-16T12:34:34.293Z,101187.45
2018-12-16T12:37:38.483Z,101185.11
2018-12-16T12:40:42.700Z,101172.73
2018-12-16T12:43:46.891Z,101180.40
2018-12-16T12:46:51.094Z,101171.02
2018-12-16T12:49:55.301Z,101172.84
2018-12-16T12:52:59.639Z,101161.02
2018-12-16T12:56:03.899Z,101166.69
2018-12-16T12:59:08.169Z,101167.33
2018-12-16T13:02:12.477Z,101168.67
2018-12-16T13:05:16.742Z,101169.19
2018-12-16T13:08:21.863Z,101162.68
2018-12-16T13:11:26.378Z,101166.54
2018-12-16T13:14:30.723Z,101168.24
2018-12-16T13:17:34.991Z,101164.25
2018-12-16T13:20:39.356Z,101167.03
2018-12-16T13:23:43.572Z,101159.67
2018-12-16T13:26:47.791Z,101159.85
2018-12-16T13:29:52.064Z,101164.35
2018-12-16T13:32:56.246Z,101163.02
2018-12-16T13:36:00.539Z,101166.21
2018-12-16T13:39:07.095Z,101161.83
2018-12-16T13:42:11.389Z,101160.16
2018-12-16T13:45:15.740Z,101163.48
2018-12-16T13:48:20.039Z,101167.48
2018-12-16T13:51:24.375Z,101171.87
2018-12-16T13:54:28.551Z,101168.64
2018-12-16T13:57:34.127Z,101178.16
2018-12-16T14:00:38.483Z,101173.59
2018-12-16T14:03:42.695Z,101165.94
2018-12-16T14:06:47.008Z,101170.27
2018-12-16T14:09:51.212Z,101162.51
2018-12-16T14:12:55.439Z,101161.69
2018-12-16T14:15:59.784Z,101168.86
2018-12-16T14:19:04.071Z,101161.63
2018-12-16T14:22:08.269Z,101167.34
2018-12-16T14:25:12.695Z,101171.36
2018-12-16T14:28:16.931Z,101163.97
2018-12-16T14:31:21.288Z,101159.27
2018-12-16T14:34:25.619Z,101161.12
2018-12-16T14:37:29.891Z,101153.09
2018-12-16T14:40:34.187Z,101155.92
2018-12-16T14:43:38.411Z,101151.70
2018-12-16T14:46:42.627Z,101158.90
2018-12-16T14:49:46.903Z,101153.55
2018-12-16T14:52:51.095Z,101157.20
2018-12-16T14:55:55.607Z,101155.70
2018-12-16T14:59:00.087Z,101152.48
2018-12-16T15:02:04.534Z,101157.17
2018-12-16T15:05:10.464Z,101161.33
2018-12-16T15:08:14.660Z,101163.63
2018-12-16T15:11:18.857Z,101163.15
2018-12-16T15:14:23.056Z,101162.81
2018-12-16T15:17:27.422Z,101159.44
2018-12-16T15:20:31.623Z,101157.62
2018-12-16T15:23:36.011Z,101157.25
2018-12-16T15:26:40.198Z,101159.44
2018-12-16T15:29:44.407Z,101154.28
2018-12-16T15:32:48.687Z,101163.78
2018-12-16T15:35:52.910Z,101158.95
2018-12-16T15:38:57.107Z,101157.47
2018-12-16T15:42:01.327Z,101161.63
2018-12-16T15:45:08.762Z,101167.61
2018-12-16T15:48:12.955Z,101163.27
2018-12-16T15:51:17.269Z,101164.79
2018-12-16T15:54:21.552Z,101156.44
2018-12-16T15:57:25.768Z,101160.75
2018-12-16T16:00:29.967Z,101163.20
2018-12-16T16:03:34.204Z,101165.39
2018-12-16T16:06:38.470Z,101165.33
2018-12-16T16:09:42.679Z,101155.48
2018-12-16T16:12:46.979Z,101159.50
2018-12-16T16:15:51.217Z,101155.16
2018-12-16T16:18:55.462Z,101155.64
2018-12-16T16:21:59.731Z,101164.81
2018-12-16T16:25:04.135Z,101163.80
2018-12-16T16:28:08.472Z,101169.30
2018-12-16T16:31:12.666Z,101169.45
2018-12-16T16:34:16.867Z,101175.13
2018-12-16T16:37:21.092Z,101170.00
2018-12-16T16:40:25.769Z,101172.83
2018-12-16T16:43:29.987Z,101175.50
2018-12-16T16:46:34.207Z,101174.98
2018-12-16T16:49:38.487Z,101183.00
2018-12-16T16:52:42.795Z,101184.00
2018-12-16T16:55:46.988Z,101178.66
2018-12-16T16:58:51.225Z,101178.50
2018-12-16T17:01:55.511Z,101172.13
2018-12-16T17:04:59.734Z,101167.78
2018-12-16T17:08:04.024Z,101177.13
2018-12-16T17:11:08.751Z,101172.27
2018-12-16T17:14:13.040Z,101175.13
2018-12-16T17:17:17.374Z,101176.13
2018-12-16T17:20:21.691Z,101180.62
2018-12-16T17:23:25.911Z,101186.64
2018-12-16T17:26:30.415Z,101197.17
2018-12-16T17:29:34.811Z,101191.47
2018-12-16T17:32:39.124Z,101189.98
2018-12-16T17:35:43.404Z,101195.17
2018-12-16T17:38:47.666Z,101199.19
2018-12-16T17:41:52.743Z,101205.72
2018-12-16T17:44:57.038Z,101201.56
2018-12-16T17:48:01.404Z,101194.88
2018-12-16T17:51:05.902Z,101202.11
2018-12-16T17:54:10.186Z,101207.79
2018-12-16T17:57:14.744Z,101211.42
2018-12-16T18:00:19.274Z,101210.73
2018-12-16T18:03:23.784Z,101212.84
2018-12-16T18:06:28.111Z,101213.36
2018-12-16T18:09:32.485Z,101221.01
2018-12-16T18:12:36.774Z,101212.66
2018-12-16T18:15:41.252Z,101221.16
2018-12-16T18:18:45.929Z,101222.16
2018-12-16T18:21:50.315Z,101222.30
2018-12-16T18:24:54.830Z,101228.28
2018-12-16T18:27:59.084Z,101226.09
2018-12-16T18:31:03.399Z,101227.09
2018-12-16T18:34:07.625Z,101222.89
2018-12-16T18:37:11.987Z,101232.88
2018-12-16T18:40:16.267Z,101227.73
2018-12-16T18:43:20.466Z,101230.21
2018-12-16T18:46:24.675Z,101230.36
2018-12-16T18:49:28.965Z,101237.37
2018-12-16T18:52:33.302Z,101238.38
2018-12-16T18:55:37.576Z,101245.53
2018-12-16T18:58:41.947Z,101249.20
2018-12-16T19:01:46.216Z,101248.35
2018-12-16T19:04:50.632Z,101249.54
2018-12-16T19:07:54.930Z,101245.34
2018-12-16T19:10:59.228Z,101245.34
2018-12-16T19:14:03.673Z,101249.64
2018-12-16T19:17:07.958Z,101250.84
2018-12-16T19:20:12.501Z,101250.32
2018-12-16T19:23:16.911Z,101253.50
2018-12-16T19:26:21.247Z,101250.27
2018-12-16T19:29:26.407Z,101248.75
2018-12-16T19:32:31.834Z,101254.72
2018-12-16T19:35:36.265Z,101253.67
2018-12-16T19:38:41.312Z,101248.97
2018-12-16T19:41:45.764Z,101256.98
2018-12-16T19:44:50.005Z,101249.88
2018-12-16T19:47:54.946Z,101254.33
2018-12-16T19:51:00.462Z,101257.80
2018-12-16T19:54:04.891Z,101265.95
2018-12-16T19:57:09.159Z,101267.55
2018-12-16T20:00:14.756Z,101276.89
2018-12-16T20:03:19.319Z,101277.75
2018-12-16T20:06:28.847Z,101279.42
2018-12-16T20:09:33.719Z,101273.11
2018-12-16T20:12:38.400Z,101278.94
2018-12-16T20:15:44.790Z,101274.73
2018-12-16T20:18:49.011Z,101279.42
2018-12-16T20:21:53.294Z,101274.59
2018-12-16T20:24:57.496Z,101275.56
2018-12-16T20:28:01.723Z,101279.08
2018-12-16T20:31:05.986Z,101281.75
2018-12-16T20:34:10.207Z,101275.41
2018-12-16T20:37:14.448Z,101263.69
2018-12-16T20:40:18.867Z,101266.64
2018-12-16T20:43:23.124Z,101262.88
2018-12-16T20:46:27.387Z,101266.88
2018-12-16T20:49:31.827Z,101280.23
2018-12-16T20:52:36.150Z,101282.42
2018-12-16T20:55:40.571Z,101288.72
2018-12-16T20:58:45.223Z,101292.39
2018-12-16T21:01:49.491Z,101295.39
2018-12-16T21:04:53.811Z,101293.35
2018-12-16T21:07:58.076Z,101296.53
2018-12-16T21:11:06.507Z,101294.83
2018-12-16T21:15:15.483Z,101284.66
2018-12-16T21:18:25.240Z,101287.53
2018-12-16T21:21:29.622Z,101285.15
2018-12-16T21:24:33.892Z,101291.97
2018-12-16T21:27:38.167Z,101286.62
2018-12-16T21:30:42.536Z,101283.33
2018-12-16T21:33:46.817Z,101288.30
2018-12-16T21:36:51.199Z,101297.16
2018-12-16T21:39:55.463Z,101300.54
2018-12-16T21:43:00.044Z,101301.02
2018-12-16T21:46:04.537Z,101302.16
2018-12-16T21:49:08.833Z,101309.37
2018-12-16T21:52:13.115Z,101311.08
2018-12-16T21:55:17.631Z,101313.12
2018-12-16T21:58:21.936Z,101324.00
2018-12-16T22:01:26.211Z,101321.75
2018-12-16T22:04:30.477Z,101320.13
2018-12-16T22:07:34.800Z,101329.91
2018-12-16T22:10:39.227Z,101318.08
2018-12-16T22:13:43.447Z,101332.63
2018-12-16T22:16:47.864Z,101328.95
2018-12-16T22:19:52.160Z,101330.09
2018-12-16T22:22:56.411Z,101327.28
2018-12-16T22:26:00.787Z,101331.63
2018-12-16T22:29:05.107Z,101335.30
2018-12-16T22:32:09.436Z,101338.30
2018-12-16T22:35:13.691Z,101333.33
2018-12-16T22:38:17.972Z,101338.53
2018-12-16T22:41:22.436Z,101339.87
2018-12-16T22:44:26.788Z,101342.88
2018-12-16T22:47:31.135Z,101350.74
2018-12-16T22:50:35.549Z,101345.74
2018-12-16T22:53:40.000Z,101354.12
2018-12-16T22:56:44.316Z,101344.36
2018-12-16T22:59:48.526Z,101348.98
2018-12-16T23:02:52.787Z,101349.64
2018-12-16T23:05:56.992Z,101347.59
2018-12-16T23:09:01.316Z,101340.21
2018-12-16T23:12:05.711Z,101330.86
2018-12-16T23:15:10.179Z,101328.56
2018-12-16T23:18:14.558Z,101334.16
2018-12-16T23:21:19.056Z,101338.30
2018-12-16T23:24:24.255Z,101336.49
2018-12-16T23:27:28.663Z,101333.25
2018-12-16T23:30:33.061Z,101334.59
2018-12-16T23:33:37.453Z,101337.26
2018-12-16T23:36:41.756Z,101338.45
2018-12-16T23:39:46.190Z,101344.45
2018-12-16T23:42:50.435Z,101338.11
2018-12-16T23:45:54.648Z,101330.95
2018-12-16T23:48:59.031Z,101331.63
2018-12-16T23:52:03.275Z,101329.95
2018-12-16T23:55:07.692Z,101336.16
2018-12-16T23:58:12.059Z,101333.20
